Time;durP1;ratioP1;P1;durP2;ratioP2;P2;SDS_P1;SDS_P2;PMS_P1;PMS_P2;Temp;Humidity;BMP_temperature;BMP_pressure;BME280_temperature;BME280_humidity;BME280_pressure;Samples;Min_cycle;Max_cycle;Signal;HPM_P1;HPM_P2
2023/04/27 00:01:36;;;;;;;;;;;11.10;40.50;;;9.80;43.15;101446.22;12247381;19;19915;-81
2023/04/27 00:05:38;;;;;;;;;;;11.10;40.50;;;9.75;43.03;101436.00;12244918;19;19918;-81
2023/04/27 00:09:40;;;;;;;;;;;11.10;40.50;;;9.79;43.10;101444.53;12244342;19;19951;-82
2023/04/27 00:13:41;;;;;;;;;;;11.40;40.70;;;9.83;42.99;101434.81;12247054;19;19915;-82
2023/04/27 00:17:43;;;;;;;;;;;11.20;40.60;;;9.82;43.17;101435.72;12242805;19;19922;-82
2023/04/27 00:21:44;;;;;;;;;;;11.20;40.60;;;9.86;43.13;101448.59;12245967;19;20248;-82
2023/04/27 00:25:46;;;;;;;;;;;11.20;40.60;;;9.83;43.17;101434.81;12245693;19;19930;-82
2023/04/27 00:29:47;;;;;;;;;;;11.20;40.60;;;9.81;43.10;101423.63;12245180;19;20330;-82
2023/04/27 00:33:49;;;;;;;;;;;11.20;40.60;;;9.84;43.19;101432.16;12245046;19;19907;-82
2023/04/27 00:37:53;;;;;;;;;;;11.20;40.70;;;9.88;43.29;101438.09;12243104;19;19931;-82
2023/04/27 00:41:55;;;;;;;;;;;11.20;40.70;;;9.85;43.29;101433.84;12244743;19;19907;-82
2023/04/27 00:45:58;;;;;;;;;;;11.20;40.70;;;9.78;43.16;101426.34;12254567;19;19927;-83
2023/04/27 00:50:00;;;;;;;;;;;11.20;40.70;;;9.79;43.28;101425.44;12256948;19;19914;-82
2023/04/27 00:54:01;;;;;;;;;;;11.30;40.70;;;9.90;43.42;101452.75;12255199;19;19937;-81
2023/04/27 00:58:05;;;;;;;;;;;11.30;40.70;;;9.91;43.39;101456.22;12252267;19;19915;-82
2023/04/27 01:02:08;;;;;;;;;;;11.30;40.70;;;9.88;43.32;101451.13;12256045;19;19923;-82
2023/04/27 01:06:09;;;;;;;;;;;11.20;40.70;;;9.86;43.25;101450.38;12255016;19;20329;-82
2023/04/27 01:10:11;;;;;;;;;;;11.20;40.70;;;9.88;43.37;101454.63;12254845;19;19934;-82
2023/04/27 01:14:12;;;;;;;;;;;11.30;40.80;;;9.81;43.42;101447.09;12255098;19;20298;-82
2023/04/27 01:18:14;;;;;;;;;;;11.30;40.80;;;9.64;43.36;101421.66;12250900;19;19911;-82
2023/04/27 01:22:16;;;;;;;;;;;11.20;40.70;;;9.87;43.35;101457.28;12257830;19;20274;-82
2023/04/27 01:26:18;;;;;;;;;;;11.20;40.70;;;9.86;43.34;101466.00;12254075;19;19927;-82
2023/04/27 01:30:21;;;;;;;;;;;11.20;40.70;;;9.77;43.32;101453.31;12255070;19;19938;-82
2023/04/27 01:34:22;;;;;;;;;;;11.20;40.70;;;9.83;43.48;101463.50;12250075;19;19915;-82
2023/04/27 01:38:24;;;;;;;;;;;11.30;40.70;;;9.78;43.29;101462.88;12249502;19;19919;-82
2023/04/27 01:42:26;;;;;;;;;;;11.20;40.70;;;9.87;43.32;101472.91;12250086;19;20346;-82
2023/04/27 01:46:27;;;;;;;;;;;11.20;40.70;;;9.85;43.37;101479.94;12244754;19;20262;-81
2023/04/27 01:50:29;;;;;;;;;;;11.30;40.70;;;9.85;43.40;101475.56;12250237;19;20578;-82
2023/04/27 01:54:31;;;;;;;;;;;11.40;40.80;;;9.79;43.29;101473.22;12249592;19;19923;-82
2023/04/27 01:58:34;;;;;;;;;;;11.20;40.70;;;9.88;43.53;101483.31;12247978;19;19982;-82
2023/04/27 02:02:35;;;;;;;;;;;11.30;40.80;;;9.90;43.36;101483.22;12251502;19;20285;-82
2023/04/27 02:06:37;;;;;;;;;;;11.20;40.70;;;9.83;43.47;101476.53;12249779;19;19927;-83
2023/04/27 02:10:41;;;;;;;;;;;11.30;40.70;;;9.86;43.57;101479.06;12252702;19;19926;-82
2023/04/27 02:14:42;;;;;;;;;;;11.20;40.70;;;9.85;43.46;101495.59;12247032;19;19921;-82
2023/04/27 02:18:44;;;;;;;;;;;11.30;40.80;;;9.91;43.53;101511.00;12247154;19;19927;-82
2023/04/27 02:22:45;;;;;;;;;;;11.30;40.70;;;9.69;43.42;101477.09;12252797;19;19930;-82
2023/04/27 02:26:47;;;;;;;;;;;11.20;40.70;;;9.89;43.53;101507.63;12249075;19;20356;-82
2023/04/27 02:30:48;;;;;;;;;;;11.30;40.60;;;9.88;43.53;101511.13;12253378;19;19939;-82
2023/04/27 02:34:50;;;;;;;;;;;11.30;40.70;;;9.88;43.45;101512.00;12252347;19;19911;-82
2023/04/27 02:38:53;;;;;;;;;;;11.30;40.70;;;9.86;43.64;101508.59;12252618;19;19919;-82
2023/04/27 02:42:55;;;;;;;;;;;11.30;40.70;;;9.87;43.59;101509.44;12250561;19;19934;-82
2023/04/27 02:46:57;;;;;;;;;;;11.30;40.70;;;9.84;43.41;101509.56;12248877;19;20329;-82
2023/04/27 02:51:01;;;;;;;;;;;11.30;40.70;;;9.88;43.49;101512.00;12249414;19;19911;-82
2023/04/27 02:55:03;;;;;;;;;;;11.20;40.60;;;9.79;43.41;101491.47;12249428;19;19911;-82
2023/04/27 02:59:04;;;;;;;;;;;11.30;40.70;;;9.91;43.48;101517.09;12248754;19;19919;-82
2023/04/27 03:03:06;;;;;;;;;;;11.30;40.70;;;9.89;43.54;101510.25;12246918;19;20277;-82
2023/04/27 03:07:08;;;;;;;;;;;11.30;40.70;;;9.85;43.48;101501.66;12247046;19;19919;-82
2023/04/27 03:11:11;;;;;;;;;;;11.30;40.70;;;9.93;43.55;101522.22;12248080;19;19919;-82
2023/04/27 03:15:13;;;;;;;;;;;11.30;40.60;;;9.92;43.42;101528.38;12247147;19;20368;-82
2023/04/27 03:19:14;;;;;;;;;;;11.30;40.60;;;9.83;43.58;101513.06;12247310;19;19907;-82
2023/04/27 03:23:16;;;;;;;;;;;11.30;40.60;;;9.89;43.51;101534.56;12247589;19;19922;-82
2023/04/27 03:27:17;;;;;;;;;;;11.30;40.70;;;9.87;43.49;101544.19;12245121;19;19942;-82
2023/04/27 03:31:19;;;;;;;;;;;11.20;40.70;;;9.58;43.61;101490.56;12246432;19;20621;-82
2023/04/27 03:35:20;;;;;;;;;;;11.20;40.60;;;9.81;43.60;101544.44;12247597;19;19922;-82
2023/04/27 03:39:22;;;;;;;;;;;11.20;40.80;;;9.75;43.59;101539.47;12248273;19;20514;-82
2023/04/27 03:43:25;;;;;;;;;;;11.20;40.70;;;9.72;43.80;101536.97;12243854;19;19923;-82
2023/04/27 03:47:26;;;;;;;;;;;11.20;40.70;;;9.68;43.77;101523.19;12242347;19;19923;-82
2023/04/27 03:51:31;;;;;;;;;;;11.10;40.70;;;9.56;43.53;101501.94;12243048;19;20365;-82
2023/04/27 03:55:33;;;;;;;;;;;11.20;40.70;;;9.66;43.52;101526.78;12241553;19;19910;-82
2023/04/27 03:59:35;;;;;;;;;;;11.20;40.70;;;9.83;43.77;101549.59;12237595;19;19919;-83
2023/04/27 04:03:38;;;;;;;;;;;11.20;40.80;;;9.81;43.64;101546.22;12248906;19;20337;-82
2023/04/27 04:07:42;;;;;;;;;;;11.20;40.70;;;9.84;43.67;101561.75;12245235;19;20257;-83
2023/04/27 04:11:44;;;;;;;;;;;11.20;40.70;;;9.84;43.63;101566.97;12251576;19;19915;-83
2023/04/27 04:15:49;;;;;;;;;;;11.20;40.70;;;9.85;43.63;101574.72;12246128;19;19923;-83
2023/04/27 04:19:50;;;;;;;;;;;11.20;40.80;;;9.85;43.57;101579.09;12255569;19;19923;-83
2023/04/27 04:23:52;;;;;;;;;;;11.20;40.70;;;9.84;43.69;101587.81;12258998;19;19926;-83
2023/04/27 04:27:53;;;;;;;;;;;11.20;40.70;;;9.75;43.89;101565.56;12250131;19;19931;-83
2023/04/27 04:31:55;;;;;;;;;;;11.20;40.70;;;9.84;43.79;101591.28;12251352;19;19985;-83
2023/04/27 04:35:57;;;;;;;;;;;11.20;40.70;;;9.86;43.72;101591.22;12257370;19;19954;-82
2023/04/27 04:39:59;;;;;;;;;;;11.20;40.70;;;9.86;43.61;101591.22;12259907;19;20282;-83
2023/04/27 04:44:00;;;;;;;;;;;11.20;40.70;;;9.81;43.61;101582.72;12259516;19;19926;-83
2023/04/27 04:48:02;;;;;;;;;;;11.20;40.70;;;9.73;43.72;101570.81;12256005;19;20249;-83
2023/04/27 04:52:04;;;;;;;;;;;11.20;40.80;;;9.81;43.54;101587.94;12258211;19;19934;-82
2023/04/27 04:56:11;;;;;;;;;;;11.20;40.80;;;9.87;43.73;101600.75;12258257;19;19911;-83
2023/04/27 05:00:13;;;;;;;;;;;11.20;40.80;;;9.86;43.66;101597.28;12255956;19;20348;-83
2023/04/27 05:04:15;;;;;;;;;;;11.20;40.80;;;9.87;43.76;101604.19;12258796;19;19975;-82
2023/04/27 05:08:17;;;;;;;;;;;11.30;40.90;;;9.78;43.69;101586.31;12253842;19;19925;-82
2023/04/27 05:12:18;;;;;;;;;;;11.20;40.90;;;9.90;43.77;101604.06;12258419;19;19925;-82
2023/04/27 05:16:20;;;;;;;;;;;11.50;41.00;;;9.92;43.71;101612.72;12256796;19;20242;-81
2023/04/27 05:20:21;;;;;;;;;;;11.30;40.90;;;9.91;43.90;101602.31;12260093;19;19931;-81
2023/04/27 05:24:25;;;;;;;;;;;11.30;40.90;;;9.92;43.87;101604.03;12257099;19;19964;-82
2023/04/27 05:28:26;;;;;;;;;;;11.30;40.90;;;9.91;43.68;101594.50;12240023;19;19918;-82
2023/04/27 05:32:28;;;;;;;;;;;11.40;40.90;;;9.92;43.78;101598.81;12254708;19;19918;-81
2023/04/27 05:36:30;;;;;;;;;;;11.40;40.90;;;9.97;43.79;101610.78;12252907;19;19923;-82
2023/04/27 05:40:31;;;;;;;;;;;11.40;40.90;;;10.04;43.79;101613.13;12254319;19;19930;-81
2023/04/27 05:44:33;;;;;;;;;;;11.40;40.90;;;10.07;43.79;101610.41;12254928;19;19918;-82
2023/04/27 05:48:35;;;;;;;;;;;11.40;41.30;;;10.11;43.96;101612.84;12248233;19;19922;-81
2023/04/27 05:52:37;;;;;;;;;;;11.50;40.90;;;10.13;43.94;101618.88;12254473;19;19914;-82
2023/04/27 05:56:39;;;;;;;;;;;11.50;41.00;;;10.17;43.84;101620.44;12253202;19;19926;-83
2023/04/27 06:00:41;;;;;;;;;;;11.60;41.00;;;10.21;43.82;101623.78;12255542;19;19926;-81
2023/04/27 06:04:43;;;;;;;;;;;11.60;41.00;;;10.24;43.85;101628.88;12253024;19;19931;-81
2023/04/27 06:08:44;;;;;;;;;;;11.60;40.90;;;10.18;44.07;101614.31;12250871;19;20261;-82
2023/04/27 06:12:46;;;;;;;;;;;11.70;40.90;;;10.26;44.00;101624.47;12253936;19;19954;-82
2023/04/27 06:16:48;;;;;;;;;;;11.70;40.90;;;10.26;43.96;101627.06;12253113;19;19927;-81
2023/04/27 06:20:49;;;;;;;;;;;11.70;40.90;;;10.18;44.01;101613.47;12253435;19;19914;-82
2023/04/27 06:24:50;;;;;;;;;;;11.90;41.00;;;10.25;43.98;101611.47;12253315;19;19915;-82
2023/04/27 06:28:53;;;;;;;;;;;11.80;41.00;;;10.41;43.95;101638.69;12254358;19;19971;-82
2023/04/27 06:32:55;;;;;;;;;;;11.80;41.00;;;10.45;44.10;101642.00;12255139;19;19915;-82
2023/04/27 06:36:56;;;;;;;;;;;11.80;40.90;;;10.45;44.05;101637.66;12250768;19;19948;-82
2023/04/27 06:40:58;;;;;;;;;;;11.80;40.90;;;10.15;43.98;101588.34;12250804;19;19918;-82
2023/04/27 06:44:59;;;;;;;;;;;11.90;40.90;;;10.46;43.87;101636.75;12252952;19;20378;-84
2023/04/27 06:49:01;;;;;;;;;;;11.90;40.80;;;10.51;43.75;101636.56;12249947;19;19932;-84
2023/04/27 06:53:02;;;;;;;;;;;12.00;40.90;;;10.54;44.11;101639.91;12255461;19;19918;-85
2023/04/27 06:57:05;;;;;;;;;;;12.00;40.90;;;10.62;43.89;101656.09;12249954;19;19935;-84
2023/04/27 07:01:06;;;;;;;;;;;12.00;40.80;;;10.67;43.92;101655.94;12255200;19;20345;-82
2023/04/27 07:05:08;;;;;;;;;;;12.10;40.80;;;10.59;44.12;101631.88;12245171;19;19927;-82
2023/04/27 07:09:09;;;;;;;;;;;12.10;40.80;;;10.74;43.99;101651.28;12247608;19;19925;-82
2023/04/27 07:13:11;;;;;;;;;;;12.20;40.80;;;10.86;43.97;101653.41;12246145;19;19943;-83
2023/04/27 07:17:12;;;;;;;;;;;12.30;40.90;;;10.97;43.96;101660.81;12246482;19;19922;-83
2023/04/27 07:21:14;;;;;;;;;;;12.30;40.90;;;10.87;44.04;101628.97;12248378;19;19955;-83
2023/04/27 07:25:15;;;;;;;;;;;12.50;40.70;;;11.00;43.99;101661.53;12248505;19;19923;-82
2023/04/27 07:29:17;;;;;;;;;;;12.50;40.60;;;11.11;44.06;101662.84;12247385;19;19929;-82
2023/04/27 07:33:18;;;;;;;;;;;12.50;40.60;;;11.15;43.90;101664.38;12245326;19;19959;-83
2023/04/27 07:37:21;;;;;;;;;;;12.60;40.50;;;11.12;44.04;101654.91;12245346;19;19919;-82
2023/04/27 07:41:23;;;;;;;;;;;12.60;40.50;;;11.04;44.19;101647.41;12246179;19;20870;-82
2023/04/27 07:45:30;;;;;;;;;;;12.60;40.30;;;11.19;43.97;101666.81;12243628;19;19922;-82
2023/04/27 07:49:33;;;;;;;;;;;12.60;40.40;;;11.23;44.09;101664.91;12244202;19;19923;-83
2023/04/27 07:53:35;;;;;;;;;;;12.70;40.40;;;11.31;44.08;101678.50;12244382;19;19942;-82
2023/04/27 07:57:36;;;;;;;;;;;12.70;40.30;;;11.33;44.06;101663.59;12242814;19;20450;-82
2023/04/27 08:01:38;;;;;;;;;;;12.70;40.30;;;11.40;44.07;101685.97;12245804;19;19927;-82
2023/04/27 08:05:40;;;;;;;;;;;12.80;40.20;;;11.42;43.93;101683.28;12246617;19;20346;-82
2023/04/27 08:09:41;;;;;;;;;;;12.80;40.00;;;11.40;44.01;101675.50;12243457;19;19929;-82
2023/04/27 08:13:43;;;;;;;;;;;12.80;40.10;;;11.41;44.00;101666.75;12245199;19;20319;-82
2023/04/27 08:17:46;;;;;;;;;;;12.90;40.20;;;11.46;43.92;101667.38;12243294;19;19930;-83
2023/04/27 08:21:47;;;;;;;;;;;12.90;40.30;;;11.61;44.01;101672.84;12243766;19;19923;-81
2023/04/27 08:25:48;;;;;;;;;;;13.00;40.40;;;11.71;43.94;101663.69;12244103;19;20023;-82
2023/04/27 08:29:52;;;;;;;;;;;13.10;40.40;;;11.60;43.88;101643.22;12241898;19;19931;-83
2023/04/27 08:33:56;;;;;;;;;;;13.20;40.40;;;11.85;43.83;101679.59;12246421;19;19919;-82
2023/04/27 08:37:57;;;;;;;;;;;13.30;40.40;;;11.93;43.93;101688.00;12241214;19;19922;-82
2023/04/27 08:41:59;;;;;;;;;;;13.30;40.30;;;11.79;43.82;101645.88;12245661;19;19919;-82
2023/04/27 08:46:01;;;;;;;;;;;13.40;40.20;;;11.94;43.92;101670.53;12241608;19;19942;-83
2023/04/27 08:50:03;;;;;;;;;;;13.40;40.10;;;11.91;43.76;101670.69;12242590;19;20352;-84
2023/04/27 08:54:04;;;;;;;;;;;13.40;40.20;;;11.97;43.96;101669.56;12239911;19;21280;-83
2023/04/27 08:58:05;;;;;;;;;;;13.40;40.10;;;11.85;43.80;101663.91;12239569;19;19932;-83
2023/04/27 09:02:20;;;;;;;;;;;13.40;39.90;;;12.00;43.96;101679.88;12241313;19;19919;-82
2023/04/27 09:06:35;;;;;;;;;;;13.40;40.00;;;11.99;43.77;101681.66;12247488;19;19955;-82
2023/04/27 09:10:47;;;;;;;;;;;13.40;40.00;;;12.02;43.89;101665.81;12253793;19;19925;-82
2023/04/27 09:15:02;;;;;;;;;;;13.40;40.00;;;12.07;43.80;101671.69;12254752;19;20261;-83
2023/04/27 09:19:03;;;;;;;;;;;13.50;40.10;;;12.08;43.80;101662.06;12247412;19;19922;-83
2023/04/27 09:23:05;;;;;;;;;;;13.60;40.10;;;12.13;43.76;101665.31;12251852;19;19978;-82
2023/04/27 09:27:07;;;;;;;;;;;13.50;39.40;;;12.22;43.69;101674.50;12237197;19;19918;-82
2023/04/27 09:31:09;;;;;;;;;;;13.60;39.80;;;12.09;43.79;101674.22;12251268;19;20279;-82
2023/04/27 09:35:34;;;;;;;;;;;13.60;39.80;;;12.12;43.83;101676.69;12248299;19;20353;-82
2023/04/27 09:39:36;;;;;;;;;;;13.60;39.70;;;12.10;43.53;101674.16;12245527;19;19919;-82
2023/04/27 09:43:38;;;;;;;;;;;13.50;39.80;;;12.03;43.72;101659.63;12250870;19;20333;-82
2023/04/27 09:47:40;;;;;;;;;;;13.50;39.90;;;12.12;43.69;101672.31;12247349;19;19923;-83
2023/04/27 09:51:42;;;;;;;;;;;13.50;39.90;;;12.12;43.69;101664.47;12253768;19;19926;-83
2023/04/27 09:55:57;;;;;;;;;;;13.50;40.00;;;12.22;43.63;101651.78;12250184;19;19956;-82
2023/04/27 10:00:15;;;;;;;;;;;13.60;40.10;;;12.38;43.72;101660.59;12251765;19;19930;-83
2023/04/27 10:04:38;;;;;;;;;;;13.70;40.10;;;12.47;43.67;101661.06;12252217;19;19923;-83
2023/04/27 10:08:40;;;;;;;;;;;13.80;40.00;;;12.46;43.58;101644.50;12247684;19;19931;-82
2023/04/27 10:12:41;;;;;;;;;;;13.80;39.90;;;12.48;43.68;101637.44;12242937;19;19927;-83
2023/04/27 10:16:45;;;;;;;;;;;13.90;39.90;;;12.54;43.59;101641.53;12244384;19;19943;-82
2023/04/27 10:20:47;;;;;;;;;;;13.90;39.90;;;12.44;43.51;101622.78;12249473;19;19923;-83
2023/04/27 10:24:50;;;;;;;;;;;14.00;40.00;;;12.64;43.58;101645.41;12251798;19;20265;-82
2023/04/27 10:29:06;;;;;;;;;;;14.00;39.80;;;12.62;43.49;101647.25;12247853;19;19932;-82
2023/04/27 10:33:08;;;;;;;;;;;14.00;39.90;;;12.65;43.56;101657.56;12251362;19;20338;-82
2023/04/27 10:37:10;;;;;;;;;;;14.10;39.90;;;12.44;43.56;101621.94;12246333;19;19979;-82
2023/04/27 10:41:13;;;;;;;;;;;14.10;39.90;;;12.65;43.57;101652.31;12246235;19;19929;-82
2023/04/27 10:45:26;;;;;;;;;;;14.00;39.90;;;12.72;43.46;101652.84;12245895;19;19919;-83
2023/04/27 10:49:28;;;;;;;;;;;14.10;39.90;;;12.66;43.50;101638.28;12246212;19;19939;-82
2023/04/27 10:53:36;;;;;;;;;;;14.00;39.80;;;12.79;43.41;101660.34;12247942;19;20008;-82
2023/04/27 10:57:48;;;;;;;;;;;14.10;39.90;;;12.73;43.35;101655.41;12245090;19;20269;-83
2023/04/27 11:01:50;;;;;;;;;;;14.10;39.70;;;12.77;43.37;101656.09;12248455;19;19931;-82
2023/04/27 11:06:03;;;;;;;;;;;14.10;39.70;;;12.77;43.48;101653.47;12241336;19;19923;-81
2023/04/27 11:10:06;;;;;;;;;;;14.10;39.70;;;12.31;43.33;101575.41;12238741;19;19995;-83
2023/04/27 11:14:07;;;;;;;;;;;14.10;39.60;;;12.76;43.39;101649.19;12248824;19;19930;-83
2023/04/27 11:18:09;;;;;;;;;;;14.20;39.70;;;12.85;43.38;101648.72;12243268;19;19923;-84
2023/04/27 11:22:11;;;;;;;;;;;14.20;39.90;;;12.89;43.56;101625.84;12251690;19;19922;-84
2023/04/27 11:26:25;;;;;;;;;;;14.30;39.80;;;13.13;43.55;101648.19;12248922;19;19914;-83
2023/04/27 11:30:27;;;;;;;;;;;14.40;39.70;;;13.18;43.49;101621.72;12248252;19;19934;-83
2023/04/27 11:34:33;;;;;;;;;;;14.60;39.60;;;13.46;43.53;101645.63;12250699;19;19915;-84
2023/04/27 11:38:34;;;;;;;;;;;14.80;39.40;;;13.58;43.56;101641.47;12246832;19;19933;-83
2023/04/27 11:42:36;;;;;;;;;;;14.90;39.50;;;13.71;43.46;101637.28;12248912;19;19927;-83
2023/04/27 11:46:38;;;;;;;;;;;15.10;39.50;;;13.83;43.44;101654.16;12248395;19;19918;-83
2023/04/27 11:50:39;;;;;;;;;;;15.20;39.50;;;13.82;43.36;101662.09;12249791;19;19943;-84
2023/04/27 11:54:52;;;;;;;;;;;15.30;37.90;;;13.55;43.22;101618.03;12247899;19;19929;-83
2023/04/27 11:58:53;;;;;;;;;;;15.30;38.80;;;13.76;43.36;101657.19;12244990;19;20326;-84
2023/04/27 12:02:54;;;;;;;;;;;15.30;38.90;;;13.86;43.28;101663.66;12249637;19;19923;-84
2023/04/27 12:06:56;;;;;;;;;;;15.30;39.10;;;13.87;43.21;101660.94;12249177;19;20389;-83
2023/04/27 12:10:58;;;;;;;;;;;15.30;38.80;;;13.67;43.28;101627.88;12250869;19;19950;-84
2023/04/27 12:14:59;;;;;;;;;;;15.30;39.10;;;13.85;43.24;101643.56;12248717;19;19919;-84
2023/04/27 12:19:00;;;;;;;;;;;15.30;39.20;;;13.91;43.10;101641.47;12247147;19;19958;-84
2023/04/27 12:23:02;;;;;;;;;;;15.40;39.30;;;14.03;43.10;101662.72;12250992;19;19911;-83
2023/04/27 12:27:03;;;;;;;;;;;15.40;38.90;;;13.88;43.08;101646.88;12250265;19;19946;-82
2023/04/27 12:31:05;;;;;;;;;;;15.40;38.90;;;14.01;43.01;101673.31;12246881;19;19911;-84
2023/04/27 12:35:08;;;;;;;;;;;15.40;39.00;;;13.92;42.98;101658.91;12249134;19;20443;-84
2023/04/27 12:39:14;;;;;;;;;;;15.40;39.10;;;13.95;42.85;101658.72;12249483;19;19922;-84
2023/04/27 12:43:16;;;;;;;;;;;15.40;39.00;;;13.73;42.95;101619.66;12261558;19;20340;-85
2023/04/27 12:47:19;;;;;;;;;;;15.40;38.60;;;14.05;42.89;101661.72;12256697;19;19911;-84
2023/04/27 12:51:20;;;;;;;;;;;15.40;38.30;;;14.08;42.78;101668.59;12262221;19;19926;-84
2023/04/27 12:55:22;;;;;;;;;;;15.40;38.10;;;14.10;42.90;101669.34;12260916;19;20638;-84
2023/04/27 12:59:23;;;;;;;;;;;15.40;38.60;;;14.13;42.86;101666.56;12257954;19;19910;-85
2023/04/27 13:03:25;;;;;;;;;;;15.40;36.80;;;14.04;42.84;101657.41;12261168;19;19939;-84
2023/04/27 13:07:26;;;;;;;;;;;15.40;38.10;;;14.00;42.75;101647.16;12258446;19;19910;-85
2023/04/27 13:11:27;;;;;;;;;;;15.50;38.30;;;13.96;42.74;101638.59;12262014;19;19920;-84
2023/04/27 13:15:29;;;;;;;;;;;15.50;38.40;;;14.11;42.67;101652.66;12261038;19;19919;-83
2023/04/27 13:19:30;;;;;;;;;;;15.50;38.20;;;14.21;42.61;101664.34;12260612;19;19926;-84
2023/04/27 13:23:32;;;;;;;;;;;15.50;38.10;;;14.11;42.69;101640.34;12262996;19;19956;-84
2023/04/27 13:27:33;;;;;;;;;;;15.60;38.00;;;14.22;42.61;101670.44;12256199;19;20622;-85
2023/04/27 13:31:35;;;;;;;;;;;15.60;38.10;;;14.14;42.51;101648.06;12263694;19;19919;-84
2023/04/27 13:35:36;;;;;;;;;;;15.60;38.40;;;14.14;42.58;101652.47;12259336;19;19915;-84
2023/04/27 13:39:38;;;;;;;;;;;15.60;37.90;;;14.20;42.42;101657.38;12258801;19;20353;-84
2023/04/27 13:43:39;;;;;;;;;;;15.60;38.30;;;14.10;42.41;101635.22;12260965;19;19922;-85
2023/04/27 13:47:40;;;;;;;;;;;15.60;38.20;;;14.04;42.39;101628.53;12252950;19;20564;-84
2023/04/27 13:51:42;;;;;;;;;;;15.60;38.10;;;14.11;42.35;101634.25;12259955;19;20605;-84
2023/04/27 13:55:43;;;;;;;;;;;15.60;38.20;;;13.99;42.40;101620.03;12260184;19;19915;-84
2023/04/27 13:59:45;;;;;;;;;;;15.60;38.40;;;14.23;42.39;101661.63;12262325;19;19925;-84
2023/04/27 14:03:46;;;;;;;;;;;15.60;38.20;;;14.03;42.31;101624.19;12262042;19;19926;-84
2023/04/27 14:07:48;;;;;;;;;;;15.60;38.00;;;14.06;42.36;101629.25;12262003;19;19929;-83
2023/04/27 14:11:49;;;;;;;;;;;15.60;38.30;;;14.34;42.37;101659.28;12264275;19;20194;-84
2023/04/27 14:15:51;;;;;;;;;;;15.60;38.20;;;14.33;42.37;101660.19;12257959;19;19915;-86
2023/04/27 14:19:52;;;;;;;;;;;15.70;38.20;;;14.21;42.36;101616.22;12262086;19;19933;-84
2023/04/27 14:23:54;;;;;;;;;;;15.70;38.10;;;14.37;42.31;101651.22;12263610;19;20329;-85
2023/04/27 14:27:56;;;;;;;;;;;15.70;37.80;;;14.39;42.19;101657.19;12257707;19;19926;-85
2023/04/27 14:31:57;;;;;;;;;;;15.80;36.90;;;14.37;42.21;101648.59;12259115;19;19931;-85
2023/04/27 14:36:00;;;;;;;;;;;15.80;38.00;;;14.23;42.26;101611.72;12256290;19;19938;-84
2023/04/27 14:40:03;;;;;;;;;;;15.80;37.60;;;14.54;42.08;101651.13;12257815;19;19943;-84
2023/04/27 14:44:07;;;;;;;;;;;15.80;37.90;;;14.48;42.08;101643.56;12241932;19;19914;-84
2023/04/27 14:48:09;;;;;;;;;;;15.90;38.10;;;14.57;42.05;101650.94;12242994;19;20329;-84
2023/04/27 14:52:11;;;;;;;;;;;15.90;38.10;;;14.59;42.08;101656.97;12253826;19;19922;-84
2023/04/27 14:56:12;;;;;;;;;;;15.90;37.60;;;14.46;41.92;101626.19;12254556;19;19944;-84
2023/04/27 15:00:14;;;;;;;;;;;16.00;38.10;;;14.67;41.95;101663.56;12256740;19;19930;-83
2023/04/27 15:04:16;;;;;;;;;;;15.90;37.90;;;14.69;41.89;101670.44;12251759;19;19918;-84
2023/04/27 15:08:17;;;;;;;;;;;16.00;38.40;;;14.53;41.92;101632.81;12254810;19;19919;-84
2023/04/27 15:12:19;;;;;;;;;;;15.90;37.90;;;14.67;41.81;101656.53;12255887;19;19930;-84
2023/04/27 15:16:21;;;;;;;;;;;16.00;37.70;;;14.63;41.88;101648.91;12256748;19;19923;-84
2023/04/27 15:20:23;;;;;;;;;;;16.00;37.90;;;14.56;41.82;101644.00;12256179;19;19914;-84
2023/04/27 15:24:24;;;;;;;;;;;15.90;37.90;;;14.53;41.84;101649.44;12256325;19;19927;-84
2023/04/27 15:28:25;;;;;;;;;;;15.90;37.70;;;14.55;41.67;101652.81;12253077;19;20333;-84
2023/04/27 15:32:28;;;;;;;;;;;15.90;37.70;;;14.51;41.77;101643.38;12254843;19;19929;-84
2023/04/27 15:36:31;;;;;;;;;;;15.90;37.80;;;14.52;41.74;101650.34;12252540;19;19935;-83
2023/04/27 15:40:33;;;;;;;;;;;15.80;37.40;;;14.63;41.83;101655.00;12255463;19;19982;-84
2023/04/27 15:44:34;;;;;;;;;;;15.80;37.80;;;14.67;41.68;101655.69;12255994;19;19911;-84
2023/04/27 15:48:36;;;;;;;;;;;15.90;37.70;;;14.68;41.69;101652.13;12252840;19;20265;-84
2023/04/27 15:52:37;;;;;;;;;;;15.90;37.90;;;14.70;41.48;101650.25;12255546;19;19918;-84
2023/04/27 15:56:39;;;;;;;;;;;16.00;37.90;;;14.63;41.60;101639.22;12253801;19;19915;-84
2023/04/27 16:00:40;;;;;;;;;;;16.00;37.60;;;14.46;41.67;101610.41;12255397;19;19919;-83
2023/04/27 16:04:44;;;;;;;;;;;16.00;37.30;;;14.71;41.54;101649.31;12255645;19;19923;-84
2023/04/27 16:08:46;;;;;;;;;;;15.90;35.90;;;14.53;41.33;101622.31;12254992;19;19923;-84
2023/04/27 16:12:47;;;;;;;;;;;15.90;37.20;;;14.66;41.44;101638.19;12253538;19;19919;-85
2023/04/27 16:16:50;;;;;;;;;;;15.90;37.60;;;14.52;41.37;101610.94;12265356;19;20330;-85
2023/04/27 16:20:51;;;;;;;;;;;15.90;37.70;;;14.58;41.42;101626.38;12270302;19;19930;-84
2023/04/27 16:24:53;;;;;;;;;;;15.80;36.80;;;14.55;41.31;101618.63;12269403;19;19918;-83
2023/04/27 16:28:55;;;;;;;;;;;15.90;36.50;;;14.54;41.31;101624.84;12267586;19;19922;-84
2023/04/27 16:32:56;;;;;;;;;;;15.80;37.40;;;14.45;41.24;101604.31;12259298;19;19922;-83
2023/04/27 16:36:58;;;;;;;;;;;15.80;37.40;;;14.41;41.29;101592.28;12259339;19;19911;-83
2023/04/27 16:40:59;;;;;;;;;;;15.80;37.60;;;14.57;41.42;101627.28;12269813;19;19919;-86
2023/04/27 16:45:01;;;;;;;;;;;15.80;37.70;;;14.57;41.18;101624.66;12265754;19;20523;-84
2023/04/27 16:49:02;;;;;;;;;;;15.80;37.60;;;14.34;41.36;101589.16;12266487;19;19915;-84
2023/04/27 16:53:09;;;;;;;;;;;15.80;37.80;;;14.47;41.06;101612.09;12266738;19;20379;-84
2023/04/27 16:57:12;;;;;;;;;;;15.80;37.90;;;14.50;41.15;101615.41;12260442;19;19915;-88
2023/04/27 17:01:13;;;;;;;;;;;15.80;37.80;;;14.50;41.12;101617.19;12267026;19;19915;-84
2023/04/27 17:05:15;;;;;;;;;;;15.70;37.70;;;14.45;41.08;101609.56;12254866;19;20334;-84
2023/04/27 17:09:17;;;;;;;;;;;15.70;37.70;;;14.52;41.15;101636.34;12259537;19;20394;-84
2023/04/27 17:13:18;;;;;;;;;;;15.70;37.60;;;14.41;41.04;101613.28;12259765;19;19939;-85
2023/04/27 17:17:20;;;;;;;;;;;15.70;37.70;;;14.36;41.14;101604.81;12256264;19;19915;-85
2023/04/27 17:21:23;;;;;;;;;;;15.70;37.70;;;14.44;41.09;101621.00;12263397;19;19923;-84
2023/04/27 17:25:25;;;;;;;;;;;15.70;37.70;;;14.39;41.07;101612.53;12262178;19;19919;-85
2023/04/27 17:29:27;;;;;;;;;;;15.70;37.80;;;14.28;40.89;101605.25;12266378;19;19940;-85
2023/04/27 17:33:28;;;;;;;;;;;15.70;37.80;;;14.37;41.07;101624.94;12266032;19;19922;-84
2023/04/27 17:37:30;;;;;;;;;;;15.60;37.70;;;14.31;40.99;101614.75;12259941;19;20266;-86
2023/04/27 17:41:32;;;;;;;;;;;15.60;37.80;;;14.16;41.10;101596.31;12260064;19;19948;-84
2023/04/27 17:45:33;;;;;;;;;;;15.50;37.80;;;14.19;40.92;101608.41;12261273;19;19921;-84
2023/04/27 17:49:35;;;;;;;;;;;15.50;37.90;;;14.11;41.05;101611.47;12254916;19;20199;-84
2023/04/27 17:53:37;;;;;;;;;;;15.40;37.80;;;14.13;40.86;101614.88;12258498;19;19915;-85
2023/04/27 17:57:39;;;;;;;;;;;15.40;37.80;;;14.00;40.99;101611.22;12253239;19;19922;-84
2023/04/27 18:01:41;;;;;;;;;;;15.30;37.80;;;13.90;40.92;101618.75;12260954;19;19919;-85
2023/04/27 18:05:43;;;;;;;;;;;15.20;37.80;;;13.84;40.98;101628.75;12259776;19;19952;-84
2023/04/27 18:09:44;;;;;;;;;;;15.10;37.80;;;13.66;40.98;101620.97;12258595;19;20369;-84
2023/04/27 18:13:46;;;;;;;;;;;15.00;37.80;;;13.48;40.83;101600.94;12264401;19;19922;-84